Time;durP1;ratioP1;P1;durP2;ratioP2;P2;SDS_P1;SDS_P2;PMS_P1;PMS_P2;Temp;Humidity;BMP_temperature;BMP_pressure;BME280_temperature;BME280_humidity;BME280_pressure;Samples;Min_cycle;Max_cycle;Signal;HPM_P1;HPM_P2
2024/02/16 00:02:45;;;;;;;9.57;3.50;;;;;;;12.10;100.00;100869.69;5098791;27;20521;-67
2024/02/16 00:05:34;;;;;;;9.00;3.58;;;;;;;12.09;100.00;100871.59;5120373;27;20078;-68
2024/02/16 00:08:22;;;;;;;10.57;3.45;;;;;;;12.08;100.00;100869.16;5134848;27;20053;-68
2024/02/16 00:11:10;;;;;;;7.88;3.80;;;;;;;12.08;100.00;100869.16;5105394;27;20510;-68
2024/02/16 00:13:58;;;;;;;10.40;3.50;;;;;;;12.08;100.00;100869.16;5103661;27;20071;-68
2024/02/16 00:16:46;;;;;;;7.68;3.40;;;;;;;12.06;100.00;100861.22;5080367;28;20075;-68
2024/02/16 00:19:45;;;;;;;8.80;3.47;;;;;;;12.06;100.00;100860.41;5093707;28;20072;-68
2024/02/16 00:22:34;;;;;;;8.30;3.50;;;;;;;12.04;100.00;100855.22;5097242;28;20506;-68
2024/02/16 00:25:22;;;;;;;7.10;3.55;;;;;;;12.04;100.00;100857.13;5114659;27;20126;-68
2024/02/16 00:28:10;;;;;;;8.02;3.90;;;;;;;12.03;100.00;100856.31;5114288;28;20096;-68
2024/02/16 00:30:58;;;;;;;9.23;3.53;;;;;;;12.03;100.00;100861.78;5114442;28;20564;-68
2024/02/16 00:33:46;;;;;;;10.35;3.92;;;;;;;12.01;100.00;100858.50;5112890;28;20047;-68
2024/02/16 00:36:34;;;;;;;11.68;3.80;;;;;;;11.99;100.00;100851.69;5079045;28;20059;-68
2024/02/16 00:39:22;;;;;;;10.70;3.90;;;;;;;11.99;100.00;100857.16;5093423;28;20044;-68
2024/02/16 00:42:10;;;;;;;7.28;3.42;;;;;;;11.97;100.00;100853.88;5065599;28;20291;-68
2024/02/16 00:45:03;;;;;;;8.18;3.70;;;;;;;11.97;100.00;100851.94;5096531;27;20114;-68
2024/02/16 00:47:51;;;;;;;10.20;3.60;;;;;;;11.96;100.00;100855.78;5134271;27;20047;-68
2024/02/16 00:50:42;;;;;;;5.95;3.50;;;;;;;11.96;100.00;100844.88;5119612;27;20049;-68
2024/02/16 00:53:30;;;;;;;9.88;4.22;;;;;;;11.97;100.00;100848.41;5095037;28;20048;-69
2024/02/16 00:56:18;;;;;;;8.95;3.67;;;;;;;11.96;100.00;100844.06;5107646;27;20047;-68
2024/02/16 01:04:51;;;;;;;11.05;4.28;;;;;;;11.92;100.00;100839.13;5119179;28;20051;-68
2024/02/16 01:07:41;;;;;;;9.75;3.70;;;;;;;11.91;100.00;100842.16;5125330;27;20047;-68
2024/02/16 01:10:29;;;;;;;9.75;4.30;;;;;;;11.91;100.00;100837.50;5118101;28;20056;-68
2024/02/16 01:13:17;;;;;;;9.13;4.35;;;;;;;11.91;100.00;100842.97;5113929;28;20106;-67
2024/02/16 01:16:05;;;;;;;10.02;4.32;;;;;;;11.89;100.00;100838.88;5079012;28;20592;-68
2024/02/16 01:18:53;;;;;;;10.10;3.80;;;;;;;11.86;100.00;100834.75;5065892;28;20114;-68
2024/02/16 01:21:41;;;;;;;6.97;3.80;;;;;;;11.87;100.00;100841.06;5092935;28;20044;-68
2024/02/16 01:24:29;;;;;;;8.43;4.03;;;;;;;11.85;100.00;100827.63;5111171;28;20126;-68
2024/02/16 01:27:17;;;;;;;7.03;3.60;;;;;;;11.85;100.00;100827.63;5099054;27;20040;-68
2024/02/16 01:30:06;;;;;;;9.35;4.00;;;;;;;11.84;100.00;100826.03;5113370;28;20046;-68
2024/02/16 01:32:54;;;;;;;9.63;4.00;;;;;;;11.84;100.00;100822.47;5109498;28;20496;-67
2024/02/16 01:35:42;;;;;;;6.78;3.70;;;;;;;11.84;100.00;100825.22;5093218;28;20050;-67
2024/02/16 01:38:30;;;;;;;8.05;4.20;;;;;;;11.85;100.00;100821.38;5111883;27;20419;-67
2024/02/16 01:41:18;;;;;;;11.40;3.58;;;;;;;11.85;100.00;100827.63;5118754;27;20039;-68
2024/02/16 01:44:06;;;;;;;12.25;4.20;;;;;;;11.84;100.00;100823.28;5110207;28;20176;-65
2024/02/16 01:46:54;;;;;;;6.40;3.63;;;;;;;11.85;100.00;100819.44;5096661;28;20089;-67
2024/02/16 01:49:42;;;;;;;10.05;4.00;;;;;;;11.85;100.00;100824.91;5111483;27;20050;-66
2024/02/16 01:52:31;;;;;;;8.70;3.92;;;;;;;11.84;100.00;100815.09;5112609;28;20054;-67
2024/02/16 01:55:20;;;;;;;8.38;3.58;;;;;;;11.83;100.00;100816.19;5080076;28;20071;-67
2024/02/16 01:58:08;;;;;;;7.88;3.60;;;;;;;11.81;100.00;100818.38;5078353;28;20054;-67
2024/02/16 02:00:56;;;;;;;8.43;3.30;;;;;;;11.80;100.00;100811.28;5117164;27;20047;-67
2024/02/16 02:03:44;;;;;;;11.35;4.00;;;;;;;11.80;100.00;100808.53;5099690;28;20050;-68
2024/02/16 02:06:32;;;;;;;10.75;3.88;;;;;;;11.80;100.00;100802.28;5090389;28;20128;-68
2024/02/16 02:09:20;;;;;;;7.53;3.80;;;;;;;11.79;100.00;100801.47;5111953;28;20620;-68
2024/02/16 02:12:09;;;;;;;11.95;3.88;;;;;;;11.78;100.00;100799.00;5099290;28;20051;-68
2024/02/16 02:14:57;;;;;;;5.45;3.20;;;;;;;11.78;100.00;100805.28;5112245;27;20066;-68
2024/02/16 02:17:45;;;;;;;7.95;3.72;;;;;;;11.77;100.00;100803.66;5083627;28;20419;-67
2024/02/16 02:20:34;;;;;;;6.97;3.80;;;;;;;11.74;100.00;100804.22;5098021;28;20040;-68
2024/02/16 02:23:22;;;;;;;7.03;3.67;;;;;;;11.71;100.00;100805.59;5090366;27;20048;-68
2024/02/16 02:26:10;;;;;;;9.25;3.35;;;;;;;11.70;100.00;100786.75;5077899;28;20103;-68
2024/02/16 02:28:58;;;;;;;6.72;3.72;;;;;;;11.69;100.00;100793.31;5091728;28;20488;-67
2024/02/16 02:31:46;;;;;;;7.97;3.38;;;;;;;11.68;100.00;100791.66;5105465;28;20048;-67
2024/02/16 02:34:36;;;;;;;7.68;3.72;;;;;;;11.66;100.00;100791.09;5110622;27;20532;-68
2024/02/16 02:37:24;;;;;;;8.90;3.70;;;;;;;11.66;100.00;100793.84;5096413;28;20040;-67
2024/02/16 02:40:12;;;;;;;9.30;3.45;;;;;;;11.66;100.00;100796.56;5111114;28;20040;-66
2024/02/16 02:43:00;;;;;;;7.63;3.70;;;;;;;11.67;100.00;100781.84;5097549;28;20039;-68
2024/02/16 02:45:48;;;;;;;9.38;3.38;;;;;;;11.66;100.00;100778.28;5085817;28;20080;-67
2024/02/16 02:54:19;;;;;;;6.38;3.60;;;;;;;11.71;100.00;100766.53;5108041;28;20036;-68
2024/02/16 02:57:08;;;;;;;8.70;3.55;;;;;;;11.73;100.00;100769.81;5109425;28;20426;-68
2024/02/16 03:00:10;;;;;;;7.07;3.47;;;;;;;11.71;100.00;100775.56;5102680;28;20048;-69
2024/02/16 03:03:00;;;;;;;8.43;3.63;;;;;;;11.71;100.00;100772.00;5077957;28;20044;-68
2024/02/16 03:05:48;;;;;;;6.68;3.28;;;;;;;11.69;100.00;100768.75;5076060;28;20143;-69
2024/02/16 03:08:36;;;;;;;5.82;3.25;;;;;;;11.66;100.00;100775.53;5076560;28;20044;-68
2024/02/16 03:11:24;;;;;;;8.73;3.55;;;;;;;11.65;100.00;100773.09;5107344;27;20410;-68
2024/02/16 03:14:13;;;;;;;5.90;3.50;;;;;;;11.62;100.00;100763.56;5121843;27;20043;-67
2024/02/16 03:17:01;;;;;;;7.35;3.45;;;;;;;11.59;100.00;100763.28;5097675;28;20054;-67
2024/02/16 03:19:49;;;;;;;9.65;3.80;;;;;;;11.58;100.00;100757.00;5100437;28;20177;-68
2024/02/16 03:22:37;;;;;;;7.60;3.60;;;;;;;11.60;100.00;100751.28;5118849;27;20044;-67
2024/02/16 03:25:25;;;;;;;7.03;3.42;;;;;;;11.61;100.00;100750.19;5115166;28;20044;-67
2024/02/16 03:28:14;;;;;;;5.47;3.22;;;;;;;11.60;100.00;100752.09;5114419;28;20044;-68
2024/02/16 03:31:03;;;;;;;7.00;3.45;;;;;;;11.62;100.00;100754.56;5101340;28;20492;-68
2024/02/16 03:33:51;;;;;;;8.98;3.90;;;;;;;11.61;100.00;100756.44;5115567;28;20051;-68
2024/02/16 03:36:40;;;;;;;7.75;3.35;;;;;;;11.60;100.00;100759.47;5114208;28;20047;-67
2024/02/16 03:39:27;;;;;;;8.07;3.60;;;;;;;11.58;100.00;100750.75;5113581;28;20060;-67
2024/02/16 03:42:17;;;;;;;7.82;3.60;;;;;;;11.55;100.00;100752.13;5115359;28;20056;-67
2024/02/16 03:45:06;;;;;;;7.38;3.40;;;;;;;11.57;100.00;100749.09;5086790;28;20043;-68
2024/02/16 03:47:54;;;;;;;5.93;3.28;;;;;;;11.58;100.00;100750.75;5108062;27;20051;-68
2024/02/16 03:50:42;;;;;;;6.47;3.38;;;;;;;11.56;100.00;100751.00;5098856;28;20051;-67
2024/02/16 03:53:30;;;;;;;8.05;3.65;;;;;;;11.56;100.00;100755.66;5099648;28;20044;-68
2024/02/16 03:56:21;;;;;;;7.10;3.42;;;;;;;11.55;100.00;100752.13;5113702;28;20036;-67
2024/02/16 03:59:10;;;;;;;7.38;3.50;;;;;;;11.56;100.00;100759.19;5105175;27;20051;-67
2024/02/16 04:02:00;;;;;;;5.85;3.30;;;;;;;11.57;100.00;100760.84;5100930;27;20147;-67
2024/02/16 04:04:48;;;;;;;8.20;4.10;;;;;;;11.54;100.00;100758.66;5095003;28;20052;-68
2024/02/16 04:07:37;;;;;;;9.40;3.67;;;;;;;11.54;100.00;100757.84;5094167;28;20143;-68
2024/02/16 04:10:25;;;;;;;6.43;3.53;;;;;;;11.52;100.00;100763.59;5098781;28;20055;-68
2024/02/16 04:13:13;;;;;;;8.60;3.75;;;;;;;11.51;100.00;100751.84;5115126;28;20058;-69
2024/02/16 04:16:01;;;;;;;9.82;3.80;;;;;;;11.52;100.00;100755.41;5114765;28;20209;-68
2024/02/16 04:18:49;;;;;;;5.95;3.40;;;;;;;11.54;100.00;100755.09;5113925;28;20039;-68
2024/02/16 04:21:37;;;;;;;8.70;3.45;;;;;;;11.55;100.00;100756.75;5085079;28;20040;-68
2024/02/16 04:24:26;;;;;;;7.95;3.65;;;;;;;11.55;100.00;100757.56;5112531;28;20047;-68
2024/02/16 04:27:14;;;;;;;9.40;3.47;;;;;;;11.54;100.00;100761.38;5079185;28;20040;-68
2024/02/16 04:30:06;;;;;;;9.27;3.50;;;;;;;11.54;100.00;100758.66;5088758;28;20560;-68
2024/02/16 04:32:54;;;;;;;8.10;3.50;;;;;;;11.52;100.00;100764.41;5113924;28;20058;-67
2024/02/16 04:35:46;;;;;;;7.63;3.55;;;;;;;11.52;100.00;100769.88;5085838;28;20047;-68
2024/02/16 04:38:34;;;;;;;6.55;3.45;;;;;;;11.54;100.00;100772.28;5113983;28;20044;-68
2024/02/16 04:41:22;;;;;;;6.43;3.67;;;;;;;11.56;100.00;100774.75;5101028;28;20135;-68
2024/02/16 04:44:10;;;;;;;6.82;3.65;;;;;;;11.56;100.00;100764.66;5113268;27;20044;-68
2024/02/16 04:46:58;;;;;;;8.13;3.42;;;;;;;11.55;100.00;100764.94;5115129;28;20048;-68
2024/02/16 04:49:46;;;;;;;10.02;3.63;;;;;;;11.54;100.00;100763.31;5112418;28;20506;-68
2024/02/16 04:52:34;;;;;;;7.18;3.70;;;;;;;11.52;100.00;100769.88;5112756;28;20047;-68
2024/02/16 04:55:22;;;;;;;4.75;2.92;;;;;;;11.51;100.00;100767.41;5085159;28;20070;-68
2024/02/16 04:58:10;;;;;;;5.82;3.30;;;;;;;11.53;100.00;100767.94;5114337;28;20065;-68
2024/02/16 05:00:58;;;;;;;8.10;3.80;;;;;;;11.53;100.00;100759.75;5111365;28;20131;-68
2024/02/16 05:03:46;;;;;;;7.63;3.58;;;;;;;11.52;100.00;100761.69;5098383;28;20044;-68
2024/02/16 05:06:40;;;;;;;5.20;3.30;;;;;;;11.53;100.00;100762.50;5097322;28;20048;-68
2024/02/16 05:09:28;;;;;;;10.02;3.40;;;;;;;11.53;100.00;100767.94;5117888;28;20058;-68
2024/02/16 05:12:18;;;;;;;7.32;3.22;;;;;;;11.52;100.00;100758.94;5119014;28;20051;-68
2024/02/16 05:15:07;;;;;;;6.40;3.38;;;;;;;11.51;100.00;100760.03;5106046;28;20032;-67
2024/02/16 05:17:55;;;;;;;6.97;3.20;;;;;;;11.52;100.00;100766.31;5139632;28;20040;-65
2024/02/16 05:20:44;;;;;;;6.43;3.50;;;;;;;11.51;100.00;100762.75;5135371;28;20101;-68
2024/02/16 05:23:32;;;;;;;5.65;3.20;;;;;;;11.49;100.00;100767.66;5100132;28;20047;-69
2024/02/16 05:26:20;;;;;;;5.90;3.13;;;;;;;11.50;100.00;100763.84;5120059;28;20023;-67
2024/02/16 05:29:09;;;;;;;8.18;3.58;;;;;;;11.49;100.00;100764.13;5137224;28;20070;-68
2024/02/16 05:31:57;;;;;;;6.38;3.33;;;;;;;11.49;100.00;100756.75;5095094;28;20048;-68
2024/02/16 05:34:45;;;;;;;8.98;3.83;;;;;;;11.49;100.00;100764.94;5077793;28;20605;-68
2024/02/16 05:37:33;;;;;;;7.75;3.63;;;;;;;11.50;100.00;100752.13;5094452;27;20040;-68
2024/02/16 05:40:28;;;;;;;7.18;3.47;;;;;;;11.50;100.00;100754.84;5083814;28;20140;-68
2024/02/16 05:43:17;;;;;;;8.02;3.20;;;;;;;11.51;100.00;100749.09;5098811;28;20047;-68
2024/02/16 05:46:06;;;;;;;8.60;3.90;;;;;;;11.50;100.00;100766.59;5112467;28;20476;-68
2024/02/16 05:48:54;;;;;;;5.93;3.30;;;;;;;11.51;100.00;100762.75;5097592;28;20124;-68
2024/02/16 05:51:58;;;;;;;6.40;3.47;;;;;;;11.51;100.00;100762.75;5112372;27;20122;-69
2024/02/16 05:54:49;;;;;;;11.68;3.72;;;;;;;11.51;100.00;100761.94;5112065;28;20188;-68
2024/02/16 05:57:38;;;;;;;9.07;3.47;;;;;;;11.51;100.00;100761.94;5097928;28;20067;-69
2024/02/16 06:00:27;;;;;;;5.90;3.33;;;;;;;11.50;100.00;100774.78;5097131;28;20039;-69
2024/02/16 06:03:15;;;;;;;8.30;3.80;;;;;;;11.52;100.00;100778.03;5107432;27;20039;-67
2024/02/16 06:06:03;;;;;;;7.85;3.65;;;;;;;11.55;100.00;100773.94;5103359;27;20410;-67
2024/02/16 06:08:51;;;;;;;6.57;3.30;;;;;;;11.57;100.00;100782.69;5103561;27;20044;-68
2024/02/16 06:11:39;;;;;;;6.97;3.25;;;;;;;11.55;100.00;100779.41;5107479;28;20055;-68
2024/02/16 06:14:27;;;;;;;6.43;3.08;;;;;;;11.57;100.00;100782.69;5068818;28;20071;-67
2024/02/16 06:17:16;;;;;;;5.78;2.78;;;;;;;11.58;100.00;100789.75;5114592;27;20043;-67
2024/02/16 06:20:05;;;;;;;5.85;2.88;;;;;;;11.60;100.00;100790.31;5132751;27;20074;-69
2024/02/16 06:22:53;;;;;;;7.05;3.40;;;;;;;11.60;100.00;100784.03;5102499;28;20087;-68
2024/02/16 06:25:41;;;;;;;5.45;2.97;;;;;;;11.61;100.00;100788.38;5076882;28;20054;-68
2024/02/16 06:28:29;;;;;;;5.50;3.38;;;;;;;11.61;100.00;100783.75;5083739;27;20043;-68
2024/02/16 06:31:17;;;;;;;5.18;3.00;;;;;;;11.60;100.00;100798.50;5090654;28;20132;-67
2024/02/16 06:34:05;;;;;;;7.50;3.42;;;;;;;11.58;100.00;100794.41;5099115;28;20052;-68
2024/02/16 06:36:53;;;;;;;7.80;3.40;;;;;;;11.56;100.00;100796.59;5103617;28;20046;-67
2024/02/16 06:39:43;;;;;;;9.88;3.70;;;;;;;11.55;100.00;100801.22;5110748;28;20040;-68
2024/02/16 06:42:31;;;;;;;7.78;3.60;;;;;;;11.55;100.00;100803.97;5098623;28;20040;-68
2024/02/16 06:45:20;;;;;;;7.18;2.90;;;;;;;11.60;100.00;100803.94;5102639;28;20047;-68
2024/02/16 06:48:08;;;;;;;6.07;2.55;;;;;;;11.68;100.00;100802.56;5094344;28;20047;-69
2024/02/16 06:50:57;;;;;;;4.90;2.63;;;;;;;11.72;100.00;100809.94;4750025;28;9999623;-68
2024/02/16 06:53:47;;;;;;;7.72;2.63;;;;;;;11.77;100.00;100809.09;5095175;28;20134;-68
2024/02/16 06:56:35;;;;;;;4.38;2.55;;;;;;;11.77;100.00;100817.28;5093432;28;20057;-68
2024/02/16 06:59:23;;;;;;;8.68;3.00;;;;;;;11.81;100.00;100821.13;5111201;28;20054;-68
2024/02/16 07:02:12;;;;;;;6.90;2.92;;;;;;;11.82;100.00;100821.94;5067176;28;20125;-67
2024/02/16 07:05:00;;;;;;;4.85;2.47;;;;;;;11.87;100.00;100827.41;5094264;28;20036;-68
2024/02/16 07:07:49;;;;;;;3.25;2.47;;;;;;;11.88;100.00;100838.06;5107741;28;20130;-67
2024/02/16 07:10:39;;;;;;;6.05;2.63;;;;;;;11.98;100.00;100844.56;5078422;28;20644;-68
2024/02/16 07:13:27;;;;;;;5.15;2.83;;;;;;;11.95;100.00;100843.22;5085746;28;20051;-67
2024/02/16 07:16:15;;;;;;;7.05;3.15;;;;;;;11.98;100.00;100850.03;5073338;28;20447;-67
2024/02/16 07:19:03;;;;;;;5.75;3.15;;;;;;;11.98;100.00;100844.56;5088827;28;20044;-69
2024/02/16 07:21:52;;;;;;;6.60;3.30;;;;;;;12.01;100.00;100854.97;5088568;28;20058;-69
2024/02/16 07:24:40;;;;;;;7.20;3.22;;;;;;;12.08;100.00;100863.69;5106820;28;20074;-68
2024/02/16 07:27:29;;;;;;;6.25;2.80;;;;;;;12.14;100.00;100863.38;5090991;28;20070;-69
2024/02/16 07:30:17;;;;;;;6.03;3.05;;;;;;;12.15;100.00;100859.56;5083939;28;20088;-69
2024/02/16 07:33:18;;;;;;;6.22;2.80;;;;;;;12.12;100.00;100873.78;5111373;28;20040;-69
2024/02/16 07:36:07;;;;;;;7.57;3.05;;;;;;;12.19;100.00;100876.19;5091459;28;20048;-69
2024/02/16 07:38:55;;;;;;;5.45;2.80;;;;;;;12.17;100.00;100881.16;5081199;28;20150;-69
2024/02/16 07:41:43;;;;;;;11.05;4.43;;;;;;;12.12;100.00;100887.44;5108176;28;20055;-68
2024/02/16 07:44:31;;;;;;;9.70;3.80;;;;;;;12.03;100.00;100882.81;5111295;28;20078;-67
2024/02/16 07:47:19;;;;;;;11.85;3.83;;;;;;;11.98;100.00;100891.84;5111317;28;20077;-68
2024/02/16 07:50:08;;;;;;;8.50;3.72;;;;;;;11.98;100.00;100889.09;5110294;28;20050;-68
2024/02/16 07:52:56;;;;;;;12.85;3.90;;;;;;;11.98;100.00;100901.91;5088481;28;20051;-68
2024/02/16 07:55:44;;;;;;;10.85;3.90;;;;;;;11.98;100.00;100899.19;5090070;28;20131;-69
2024/02/16 07:58:32;;;;;;;8.50;3.33;;;;;;;12.02;100.00;100900.28;5091775;28;20048;-69
2024/02/16 08:01:20;;;;;;;9.20;4.28;;;;;;;12.02;100.00;100897.56;5089498;28;20059;-68
2024/02/16 08:04:08;;;;;;;7.13;3.30;;;;;;;12.03;100.00;100901.94;5114793;28;20135;-68
2024/02/16 08:06:56;;;;;;;6.70;3.08;;;;;;;12.06;100.00;100906.84;5114753;28;20043;-68
2024/02/16 08:09:45;;;;;;;6.72;2.92;;;;;;;12.05;100.00;100905.19;5114070;28;20047;-69
2024/02/16 08:12:36;;;;;;;5.85;2.95;;;;;;;12.08;100.00;100893.72;5100860;28;20063;-68
2024/02/16 08:15:25;;;;;;;7.75;3.85;;;;;;;12.09;100.00;100898.88;5109523;28;20039;-71
2024/02/16 08:18:14;;;;;;;10.73;3.80;;;;;;;12.10;100.00;100903.28;5087425;28;20074;-68
2024/02/16 08:21:02;;;;;;;10.63;3.38;;;;;;;12.13;100.00;100915.56;5085627;28;20564;-68
2024/02/16 08:23:50;;;;;;;8.10;3.28;;;;;;;12.12;100.00;100919.38;5112771;28;20036;-70
2024/02/16 08:26:38;;;;;;;8.18;3.67;;;;;;;12.11;100.00;100915.00;5091517;28;20059;-68
2024/02/16 08:29:26;;;;;;;9.25;3.13;;;;;;;12.11;100.00;100925.94;5092467;28;20381;-68
2024/02/16 08:32:16;;;;;;;7.78;3.40;;;;;;;12.15;100.00;100933.31;5066607;28;20044;-68
2024/02/16 08:35:04;;;;;;;6.97;3.30;;;;;;;12.14;100.00;100933.56;5095565;28;20052;-68
2024/02/16 08:37:52;;;;;;;6.85;3.10;;;;;;;12.15;100.00;100932.50;5115188;28;20044;-68
2024/02/16 08:40:41;;;;;;;6.38;3.28;;;;;;;12.16;100.00;100947.78;5113176;28;20128;-67
2024/02/16 08:43:29;;;;;;;12.43;3.97;;;;;;;12.24;100.00;100947.25;5098900;28;20044;-68
2024/02/16 08:46:17;;;;;;;8.52;3.50;;;;;;;12.29;100.00;100960.88;5066115;28;20048;-69
2024/02/16 08:49:06;;;;;;;11.27;3.90;;;;;;;12.22;100.00;100963.09;5065546;28;20170;-69
2024/02/16 08:51:54;;;;;;;11.20;3.72;;;;;;;12.22;100.00;100963.09;5079450;28;20070;-68
2024/02/16 08:54:43;;;;;;;8.30;3.75;;;;;;;12.19;100.00;100969.06;5104355;28;20474;-69
2024/02/16 08:57:33;;;;;;;9.25;3.60;;;;;;;12.26;100.00;100969.59;5099430;28;20044;-68
2024/02/16 09:00:23;;;;;;;10.38;4.00;;;;;;;12.32;100.00;100971.25;5112540;28;20036;-68
2024/02/16 09:03:11;;;;;;;11.30;3.63;;;;;;;12.32;100.00;100986.84;5098955;28;20056;-69
2024/02/16 09:05:59;;;;;;;9.85;3.80;;;;;;;12.29;100.00;100985.47;5113458;28;20040;-69
2024/02/16 09:08:48;;;;;;;11.50;3.97;;;;;;;12.28;100.00;100981.09;5084443;28;20043;-69
2024/02/16 09:11:36;;;;;;;8.48;3.95;;;;;;;12.26;100.00;100994.19;5086577;28;20060;-69
2024/02/16 09:14:24;;;;;;;13.25;3.85;;;;;;;12.32;100.00;100984.09;5098157;28;20480;-68
2024/02/16 09:17:13;;;;;;;7.50;3.63;;;;;;;12.30;100.00;100998.03;5113142;28;20093;-68
2024/02/16 09:20:03;;;;;;;8.68;3.13;;;;;;;12.39;100.00;100994.72;5093477;28;20044;-68
2024/02/16 09:22:51;;;;;;;9.98;4.00;;;;;;;12.41;100.00;100995.28;5096929;28;20047;-68
2024/02/16 09:25:40;;;;;;;10.60;3.88;;;;;;;12.46;100.00;101014.38;5096277;28;20044;-67
2024/02/16 09:28:29;;;;;;;11.23;4.07;;;;;;;12.44;100.00;101013.88;5114714;28;20043;-68
2024/02/16 09:31:18;;;;;;;12.65;4.82;;;;;;;12.47;100.00;101021.50;5108096;28;20055;-67
2024/02/16 09:34:05;;;;;;;11.50;4.43;;;;;;;12.45;100.00;101021.78;5099995;28;20487;-68
2024/02/16 09:36:54;;;;;;;8.02;3.67;;;;;;;12.45;100.00;101015.50;5103146;28;20445;-68
2024/02/16 09:39:42;;;;;;;16.45;4.30;;;;;;;12.53;100.00;101023.13;5094938;28;20043;-69
2024/02/16 09:42:30;;;;;;;16.42;4.88;;;;;;;12.54;100.00;101032.97;5105013;28;20040;-69
2024/02/16 09:45:18;;;;;;;12.30;4.75;;;;;;;12.52;100.00;101035.16;5089927;28;20040;-69
2024/02/16 09:48:08;;;;;;;9.57;4.70;;;;;;;12.50;100.00;101035.44;5118645;28;20048;-68
2024/02/16 09:50:58;;;;;;;11.52;4.85;;;;;;;12.50;100.00;101045.53;5086010;28;20046;-68
2024/02/16 09:53:55;;;;;;;13.25;5.65;;;;;;;12.51;100.00;101042.56;5079263;28;20043;-68
2024/02/16 09:56:46;;;;;;;13.48;4.95;;;;;;;12.54;100.00;101052.09;5080558;28;20054;-68
2024/02/16 09:59:35;;;;;;;12.95;4.93;;;;;;;12.53;100.00;101056.75;5109077;28;20407;-68
2024/02/16 10:02:23;;;;;;;14.80;5.60;;;;;;;12.57;100.00;101062.47;5086294;28;20511;-67
2024/02/16 10:05:15;;;;;;;10.68;4.65;;;;;;;12.56;100.00;101069.06;5107531;28;20050;-68
2024/02/16 10:08:13;;;;;;;7.93;4.25;;;;;;;12.57;100.00;101073.41;5113283;28;20126;-69
2024/02/16 10:11:03;;;;;;;10.15;5.10;;;;;;;12.57;100.00;101076.97;5106591;28;20078;-68
2024/02/16 10:13:59;;;;;;;10.05;4.78;;;;;;;12.60;100.00;101077.50;5085394;28;20039;-70
2024/02/16 10:17:03;;;;;;;10.65;4.45;;;;;;;12.62;100.00;101078.06;5092499;28;20181;-68
2024/02/16 10:19:59;;;;;;;11.40;4.72;;;;;;;12.63;100.00;101083.25;5092087;28;20093;-68
2024/02/16 10:22:47;;;;;;;;;;;;;;;12.67;100.00;101094.44;5080727;28;20039;-68
2024/02/16 10:25:37;;;;;;;12.25;4.90;;;;;;;12.68;100.00;101096.94;5078159;28;19927;-69
2024/02/16 10:28:31;;;;;;;14.18;5.25;;;;;;;12.65;100.00;101105.69;5073945;28;20051;-69
2024/02/16 10:31:19;;;;;;;12.88;5.15;;;;;;;12.66;100.00;101104.56;5092338;28;20381;-69
2024/02/16 10:34:09;;;;;;;12.20;4.85;;;;;;;12.63;100.00;101116.06;5078867;28;20073;-68
2024/02/16 10:36:58;;;;;;;11.55;4.70;;;;;;;12.61;100.00;101128.38;5081421;28;20050;-68
2024/02/16 10:39:46;;;;;;;12.52;5.50;;;;;;;12.57;100.00;101131.63;5103583;28;20488;-68
2024/02/16 10:42:35;;;;;;;9.35;4.90;;;;;;;12.56;100.00;101132.75;5091872;28;20043;-69
2024/02/16 10:45:24;;;;;;;12.15;4.78;;;;;;;12.55;100.00;101135.72;5066085;28;20780;-68
2024/02/16 10:48:12;;;;;;;9.40;4.55;;;;;;;12.54;100.00;101148.59;5091598;28;20059;-69
2024/02/16 10:51:02;;;;;;;14.57;5.50;;;;;;;12.52;100.00;101141.75;5076722;28;20044;-69
2024/02/16 10:53:53;;;;;;;9.95;4.97;;;;;;;12.52;100.00;101149.97;5094294;28;20055;-69
2024/02/16 10:56:41;;;;;;;13.90;5.40;;;;;;;12.53;100.00;101152.44;5083062;28;20724;-69
2024/02/16 10:59:42;;;;;;;12.68;5.32;;;;;;;12.52;100.00;101158.16;5099778;28;20192;-69
2024/02/16 11:02:32;;;;;;;17.95;6.45;;;;;;;12.53;100.00;101152.44;5068215;28;20053;-72
2024/02/16 11:05:20;;;;;;;12.25;5.25;;;;;;;12.55;100.00;101161.19;5063831;28;20083;-72
2024/02/16 11:08:13;;;;;;;10.63;4.72;;;;;;;12.53;100.00;101157.91;5090572;28;20040;-72
2024/02/16 11:11:05;;;;;;;13.40;5.47;;;;;;;12.53;100.00;101166.09;5081837;28;21091;-69
2024/02/16 11:13:56;;;;;;;16.77;5.93;;;;;;;12.50;100.00;101168.53;5100531;28;20055;-68
2024/02/16 11:16:45;;;;;;;16.25;5.88;;;;;;;12.46;100.00;101175.63;5082549;28;20061;-69
2024/02/16 11:19:34;;;;;;;16.90;5.93;;;;;;;12.45;100.00;101179.47;5082014;28;20441;-68
2024/02/16 11:22:26;;;;;;;14.27;5.82;;;;;;;12.42;100.00;101180.03;5095878;28;20047;-68
2024/02/16 11:25:14;;;;;;;14.52;5.63;;;;;;;12.41;100.00;101186.56;5108546;28;20039;-68
2024/02/16 11:28:03;;;;;;;11.70;5.78;;;;;;;12.38;100.00;101189.84;5096746;28;20536;-70
2024/02/16 11:30:51;;;;;;;17.60;5.90;;;;;;;12.36;100.00;101199.16;4363657;28;10001091;-68
2024/02/16 11:33:46;;;;;;;13.52;6.30;;;;;;;12.34;100.00;101190.41;5092230;28;20494;-70
2024/02/16 11:36:35;;;;;;;15.13;5.80;;;;;;;12.33;100.00;101196.94;5083969;28;20532;-69
2024/02/16 11:39:23;;;;;;;13.65;5.75;;;;;;;12.33;100.00;101207.88;5101994;28;20079;-69
2024/02/16 11:42:13;;;;;;;13.25;6.32;;;;;;;12.32;100.00;101203.50;5080525;28;20115;-68
2024/02/16 11:45:02;;;;;;;14.77;6.10;;;;;;;12.29;100.00;101206.78;5091164;28;20044;-68
2024/02/16 11:47:50;;;;;;;11.45;5.82;;;;;;;12.32;100.00;101200.78;5078301;28;20069;-68
2024/02/16 11:50:38;;;;;;;13.32;6.43;;;;;;;12.31;100.00;101214.69;5062460;28;20059;-68
2024/02/16 11:53:27;;;;;;;14.70;6.93;;;;;;;12.30;100.00;101213.88;5092597;28;20055;-68
2024/02/16 11:56:25;;;;;;;14.30;7.00;;;;;;;12.31;100.00;101221.00;5096954;28;20075;-68
2024/02/16 11:59:17;;;;;;;13.27;6.90;;;;;;;12.30;100.00;101222.06;5090510;28;20640;-68
2024/02/16 12:02:05;;;;;;;13.52;6.50;;;;;;;12.30;100.00;101227.53;5070606;28;20488;-68
2024/02/16 12:05:00;;;;;;;11.88;6.55;;;;;;;12.29;100.00;101228.63;5102600;28;20058;-68
2024/02/16 12:07:51;;;;;;;11.90;6.30;;;;;;;12.29;100.00;101222.34;5078227;28;20206;-68
2024/02/16 12:10:39;;;;;;;13.07;7.75;;;;;;;12.29;100.00;101223.19;5100359;27;20059;-68
2024/02/16 12:13:27;;;;;;;19.17;10.25;;;;;;;12.32;100.00;101219.09;5097405;28;20511;-68
2024/02/16 12:16:18;;;;;;;13.35;6.93;;;;;;;12.30;100.00;101230.28;5111637;28;20062;-68
2024/02/16 12:19:06;;;;;;;16.17;7.15;;;;;;;12.32;100.00;101235.47;5096594;28;20044;-68
2024/02/16 12:21:58;;;;;;;12.55;6.53;;;;;;;12.32;100.00;101236.28;5079836;28;20043;-68
2024/02/16 12:24:50;;;;;;;14.18;7.13;;;;;;;12.35;100.00;101232.19;5091957;28;20047;-69
2024/02/16 12:27:38;;;;;;;13.30;6.47;;;;;;;12.34;100.00;101250.50;5079526;28;20555;-68
2024/02/16 12:30:27;;;;;;;14.25;6.57;;;;;;;12.34;100.00;101260.63;5073863;28;20555;-68
2024/02/16 12:33:16;;;;;;;10.65;6.18;;;;;;;12.32;100.00;101258.16;5069675;28;20059;-68
2024/02/16 12:36:06;;;;;;;15.95;6.70;;;;;;;12.32;100.00;101268.25;5101511;28;20461;-68
2024/02/16 12:38:54;;;;;;;14.60;6.75;;;;;;;12.31;100.00;101272.06;5064304;28;20132;-68
2024/02/16 12:41:42;;;;;;;12.65;6.25;;;;;;;12.29;100.00;101280.56;5089443;28;20124;-67
2024/02/16 12:44:31;;;;;;;16.88;6.32;;;;;;;12.30;100.00;101284.91;5108505;28;20053;-68
2024/02/16 12:47:20;;;;;;;10.85;5.85;;;;;;;12.30;100.00;101281.38;5109918;28;20388;-67
2024/02/16 12:50:08;;;;;;;7.63;5.00;;;;;;;12.27;100.00;101287.38;5091202;28;20514;-68
2024/02/16 12:52:57;;;;;;;9.23;5.57;;;;;;;12.25;100.00;101290.38;5090156;28;20082;-68
2024/02/16 12:55:51;;;;;;;8.50;5.07;;;;;;;12.22;100.00;101293.63;5100363;28;20535;-68
2024/02/16 12:58:39;;;;;;;8.93;5.47;;;;;;;12.21;100.00;101302.91;5085800;28;20048;-67
2024/02/16 13:01:27;;;;;;;12.77;5.53;;;;;;;12.21;100.00;101313.84;5089409;28;20052;-67
2024/02/16 13:04:21;;;;;;;9.95;5.28;;;;;;;12.20;100.00;101316.84;5075511;28;20337;-68
2024/02/16 13:07:11;;;;;;;8.55;5.03;;;;;;;12.17;100.00;101323.69;5077871;28;20046;-67